Time;durP1;ratioP1;P1;durP2;ratioP2;P2;SDS_P1;SDS_P2;PMS_P1;PMS_P2;Temp;Humidity;BMP_temperature;BMP_pressure;BME280_temperature;BME280_humidity;BME280_pressure;Samples;Min_cycle;Max_cycle;Signal;HPM_P1;HPM_P2
2021/06/01 00:01:30;;;;;;;;;6.25;6.25;;;;;18.56;32.95;101144.06;5030655;28;51223;-45
2021/06/01 00:03:55;;;;;;;;;4.67;4.67;;;;;18.55;32.99;101144.91;5027741;28;51198;-47
2021/06/01 00:06:21;;;;;;;;;5.50;5.00;;;;;18.52;33.27;101141.34;5029769;28;51331;-50
2021/06/01 00:08:46;;;;;;;;;5.00;5.00;;;;;18.50;32.84;101142.22;5027709;28;51144;-48
2021/06/01 00:11:12;;;;;;;;;4.00;4.00;;;;;18.49;33.14;101158.88;5029776;28;51083;-46
2021/06/01 00:13:38;;;;;;;;;5.33;5.00;;;;;18.44;33.07;101149.13;5026984;28;51152;-48
2021/06/01 00:16:05;;;;;;;;;5.75;5.75;;;;;18.40;33.16;101148.22;5022731;28;51301;-50
2021/06/01 00:18:32;;;;;;;;;5.00;5.00;;;;;18.36;33.45;101143.75;5027968;28;51182;-48
2021/06/01 00:20:58;;;;;;;;;4.50;4.50;;;;;18.32;33.31;101147.19;5028226;28;51286;-46
2021/06/01 00:23:23;;;;;;;;;6.50;6.00;;;;;18.31;33.18;101148.06;5026187;28;51184;-41
2021/06/01 00:25:49;;;;;;;;;4.50;4.50;;;;;18.29;33.07;101149.78;5031154;28;50981;-41
2021/06/01 00:28:15;;;;;;;;;5.25;5.25;;;;;18.23;33.63;101147.91;5030504;28;51908;-40
2021/06/01 00:30:41;;;;;;;;;5.50;5.00;;;;;18.17;33.08;101138.22;5032149;28;51007;-40
2021/06/01 00:33:07;;;;;;;;;5.50;5.50;;;;;18.17;33.32;101147.81;5031756;28;51168;-40
2021/06/01 00:35:34;;;;;;;;;4.75;4.75;;;;;18.16;33.40;101143.44;5023936;28;51286;-40
2021/06/01 00:38:02;;;;;;;;;5.00;4.50;;;;;18.13;33.45;101139.03;5017920;28;53025;-40
2021/06/01 00:40:27;;;;;;;;;4.00;4.00;;;;;18.10;33.53;101141.59;5029635;28;51012;-40
2021/06/01 00:42:52;;;;;;;;;7.00;6.00;;;;;18.08;33.51;101140.69;5029547;28;51016;-40
2021/06/01 00:45:20;;;;;;;;;5.25;4.50;;;;;18.05;33.66;101140.59;5030526;28;51351;-40
2021/06/01 00:47:47;;;;;;;;;5.25;5.25;;;;;18.04;33.61;101133.56;5026507;28;52688;-40
2021/06/01 00:50:13;;;;;;;;;4.25;4.25;;;;;18.00;33.47;101131.75;5029072;28;51135;-40
2021/06/01 00:52:39;;;;;;;;;6.00;6.00;;;;;17.97;33.49;101132.59;5027620;28;51161;-41
2021/06/01 00:55:09;;;;;;;;;5.25;5.25;;;;;17.95;33.71;101129.03;5024677;28;51300;-40
2021/06/01 00:57:35;;;;;;;;;6.00;6.00;;;;;17.89;33.86;101129.84;5051448;28;53800;-40
2021/06/01 01:00:01;;;;;;;;;6.00;6.00;;;;;17.84;33.96;101128.88;5028115;28;51022;-40
2021/06/01 01:02:27;;;;;;;;;6.25;5.75;;;;;17.83;34.43;101133.22;5031114;28;50920;-40
2021/06/01 01:04:53;;;;;;;;;6.75;6.00;;;;;17.82;34.37;101127.94;5029256;28;51081;-40
2021/06/01 01:07:34;;;;;;;;;6.00;6.00;;;;;17.81;34.31;101134.97;5019167;28;51240;-42
2021/06/01 01:10:00;;;;;;;;;5.00;5.00;;;;;17.79;34.53;101131.41;5031530;28;51295;-40
2021/06/01 01:12:39;;;;;;;;;6.00;6.00;;;;;17.77;33.93;101124.34;5027798;28;51123;-40
2021/06/01 01:15:06;;;;;;;;;7.50;7.25;;;;;17.74;34.50;101132.19;5032957;28;51132;-40
2021/06/01 01:17:49;;;;;;;;;5.00;5.00;;;;;17.68;34.55;101131.22;5031156;28;52790;-40
2021/06/01 01:20:44;;;;;;;;;6.00;5.25;;;;;17.66;34.65;101121.53;5032926;28;51095;-40
2021/06/01 01:23:13;;;;;;;;;5.00;5.00;;;;;17.64;34.55;101124.13;5033400;28;51207;-40
2021/06/01 01:26:12;;;;;;;;;5.00;5.00;;;;;17.60;34.51;101117.06;5021920;28;52247;-40
2021/06/01 01:29:02;;;;;;;;;4.50;4.50;;;;;17.58;34.50;101117.06;5030267;28;52493;-41
2021/06/01 01:31:35;;;;;;;;;5.25;5.25;;;;;17.61;35.05;101121.47;5030845;28;51125;-40
2021/06/01 01:34:03;;;;;;;;;5.00;5.00;;;;;17.57;34.66;101111.75;5029606;28;51297;-41
2021/06/01 01:36:29;;;;;;;;;4.50;4.50;;;;;17.57;34.85;101112.63;5018507;28;51290;-41
2021/06/01 01:38:58;;;;;;;;;5.00;5.00;;;;;17.55;34.74;101116.97;5022954;28;51878;-43
2021/06/01 01:41:24;;;;;;;;;7.00;6.75;;;;;17.53;34.72;101115.19;5023210;28;51126;-41
2021/06/01 01:43:52;;;;;;;;;5.00;5.00;;;;;17.49;34.52;101114.25;5025012;28;51131;-41
2021/06/01 01:46:48;;;;;;;;;6.50;6.00;;;;;17.45;34.89;101115.91;5050341;28;51265;-41
2021/06/01 01:49:24;;;;;;;;;5.00;5.00;;;;;17.44;34.83;101098.41;5030425;28;52826;-41
2021/06/01 01:51:57;;;;;;;;;6.00;6.00;;;;;17.41;35.29;101108.84;5031588;28;50949;-41
2021/06/01 01:54:27;;;;;;;;;5.75;5.75;;;;;17.41;35.02;101106.22;5024081;28;51200;-41
2021/06/01 01:57:08;;;;;;;;;4.75;4.75;;;;;17.40;35.06;101093.94;5043404;28;51191;-41
2021/06/01 01:59:34;;;;;;;;;4.50;4.50;;;;;17.41;34.91;101097.47;5031507;28;51242;-41
2021/06/01 02:02:00;;;;;;;;;4.75;4.75;;;;;17.37;35.31;101093.91;5033664;28;51277;-41
2021/06/01 02:04:28;;;;;;;;;3.00;3.00;;;;;17.36;34.92;101086.00;5033499;28;51250;-41
2021/06/01 02:06:56;;;;;;;;;5.00;5.00;;;;;17.36;34.91;101084.25;5034259;28;51025;-41
2021/06/01 02:09:22;;;;;;;;;6.00;6.00;;;;;17.34;34.92;101091.22;5032320;28;51157;-41
2021/06/01 02:11:48;;;;;;;;;5.00;5.00;;;;;17.31;35.28;101081.53;5030270;28;51233;-41
2021/06/01 02:14:13;;;;;;;;;6.00;6.00;;;;;17.25;35.96;101083.16;5032949;28;51427;-41
2021/06/01 02:16:42;;;;;;;;;5.75;5.00;;;;;17.19;36.38;101084.81;5032076;28;51068;-41
2021/06/01 02:19:11;;;;;;;;;7.50;7.00;;;;;17.13;36.53;101092.56;5032550;28;52627;-41
2021/06/01 02:24:11;;;;;;;;;9.00;7.00;;;;;17.02;37.38;101088.81;5032568;28;51100;-41
2021/06/01 02:27:10;;;;;;;;;9.75;9.25;;;;;16.96;37.41;101092.19;5034058;28;51160;-41
2021/06/01 02:30:00;;;;;;;;;7.25;7.25;;;;;16.91;37.69;101086.88;5031277;28;51177;-41
2021/06/01 02:32:33;;;;;;;;;8.25;8.00;;;;;16.88;37.74;101089.41;5015504;28;51175;-41
2021/06/01 02:35:04;;;;;;;;;7.25;7.25;;;;;16.86;37.66;101085.00;5032796;28;51108;-41
2021/06/01 02:37:30;;;;;;;;;7.00;7.00;;;;;16.81;37.87;101090.16;5033777;28;51140;-41
2021/06/01 02:39:56;;;;;;;;;7.25;7.00;;;;;16.78;37.86;101088.31;5033373;28;52215;-41
2021/06/01 02:42:23;;;;;;;;;7.75;7.75;;;;;16.76;37.81;101078.66;5033272;28;51568;-41
2021/06/01 02:44:50;;;;;;;;;6.00;6.00;;;;;16.75;37.88;101079.50;5029443;28;51291;-41
2021/06/01 02:47:16;;;;;;;;;7.50;7.50;;;;;16.72;38.18;101082.09;5032325;28;51209;-41
2021/06/01 02:49:42;;;;;;;;;8.00;8.00;;;;;16.69;38.34;101087.25;5031210;28;51973;-41
2021/06/01 02:52:08;;;;;;;;;6.25;6.25;;;;;16.65;38.18;101075.84;5032703;28;51589;-41
2021/06/01 02:54:33;;;;;;;;;6.00;5.75;;;;;16.64;38.11;101074.94;5031374;28;51275;-41
2021/06/01 02:56:59;;;;;;;;;7.00;7.00;;;;;16.60;38.64;101072.19;5032518;28;51128;-41
2021/06/01 02:59:25;;;;;;;;;8.25;8.00;;;;;16.56;38.73;101079.13;5031002;28;51924;-41
2021/06/01 03:01:51;;;;;;;;;6.00;5.25;;;;;16.52;38.51;101080.78;5033178;28;51071;-41
2021/06/01 03:04:16;;;;;;;;;8.00;7.00;;;;;16.49;38.71;101074.59;5033165;28;51108;-41
2021/06/01 03:06:43;;;;;;;;;9.00;7.00;;;;;16.48;38.66;101065.84;5031014;28;50906;-41
2021/06/01 03:09:10;;;;;;;;;7.25;7.25;;;;;16.47;38.88;101065.81;5031557;28;52665;-41
2021/06/01 03:11:36;;;;;;;;;7.25;7.25;;;;;16.46;39.19;101069.28;5025462;28;51197;-41
2021/06/01 03:14:03;;;;;;;;;6.00;6.00;;;;;16.46;38.72;101071.91;5030815;28;51275;-41
2021/06/01 03:16:28;;;;;;;;;8.25;7.75;;;;;16.44;39.05;101065.75;5033476;28;51004;-41
2021/06/01 03:18:54;;;;;;;;;9.00;6.50;;;;;16.40;39.04;101070.03;5030505;28;53500;-40
2021/06/01 03:21:19;;;;;;;;;6.00;6.00;;;;;16.36;39.24;101062.94;5033046;28;50945;-40
2021/06/01 03:23:46;;;;;;;;;6.75;6.75;;;;;16.34;39.16;101070.78;5030172;28;51074;-40
2021/06/01 03:26:13;;;;;;;;;8.00;7.75;;;;;16.32;39.62;101067.25;5032682;28;51487;-40
2021/06/01 03:28:39;;;;;;;;;10.00;8.00;;;;;16.30;39.56;101068.94;5030927;28;52866;-41
2021/06/01 03:31:06;;;;;;;;;5.50;5.00;;;;;16.29;39.54;101056.69;5032329;28;51044;-41
2021/06/01 03:33:32;;;;;;;;;9.75;7.00;;;;;16.25;39.57;101060.09;5031167;28;51147;-41
2021/06/01 03:35:58;;;;;;;;;7.25;7.25;;;;;16.23;39.82;101061.78;5030822;28;51171;-41
2021/06/01 03:38:24;;;;;;;;;6.50;6.50;;;;;16.20;40.26;101053.84;5032349;28;51674;-41
2021/06/01 03:40:49;;;;;;;;;7.75;7.75;;;;;16.17;39.86;101051.19;5030406;28;50929;-41
2021/06/01 03:43:15;;;;;;;;;7.00;7.00;;;;;16.15;39.70;101053.75;5047589;28;51003;-41
2021/06/01 03:45:41;;;;;;;;;7.00;7.00;;;;;16.12;40.21;101046.72;5032140;28;51645;-41
2021/06/01 03:48:06;;;;;;;;;10.00;9.50;;;;;16.10;40.28;101051.00;5032201;28;51354;-41
2021/06/01 03:50:32;;;;;;;;;7.25;7.25;;;;;16.08;40.29;101047.47;5019828;28;51088;-41
2021/06/01 03:52:58;;;;;;;;;10.00;8.00;;;;;16.07;40.33;101050.06;5032629;28;51083;-41
2021/06/01 03:55:23;;;;;;;;;8.75;7.00;;;;;16.04;40.67;101050.88;5031740;28;51219;-40
2021/06/01 03:57:49;;;;;;;;;7.75;6.75;;;;;16.03;40.61;101059.59;5029530;28;51876;-41
2021/06/01 04:00:21;;;;;;;;;8.00;7.25;;;;;16.02;40.58;101049.97;5032405;28;51224;-41
2021/06/01 04:02:47;;;;;;;;;8.00;7.75;;;;;16.01;40.77;101056.03;5032659;28;50940;-40
2021/06/01 04:05:12;;;;;;;;;8.00;8.00;;;;;15.99;41.27;101042.94;5030635;28;51207;-41
2021/06/01 04:07:38;;;;;;;;;9.00;8.00;;;;;15.98;40.68;101051.59;5032323;28;51241;-40
2021/06/01 04:10:07;;;;;;;;;7.00;7.00;;;;;15.97;41.08;101048.97;5030860;28;51228;-41
2021/06/01 04:12:33;;;;;;;;;9.00;8.25;;;;;15.97;40.76;101049.84;5030608;28;51361;-41
2021/06/01 04:14:59;;;;;;;;;8.00;6.50;;;;;15.96;40.86;101063.78;5030084;28;51261;-41
2021/06/01 04:17:25;;;;;;;;;9.00;8.00;;;;;15.97;40.83;101059.47;5030844;28;51256;-41
2021/06/01 04:19:50;;;;;;;;;10.00;9.25;;;;;15.97;41.05;101049.84;5031224;28;51103;-41
2021/06/01 04:22:15;;;;;;;;;13.50;10.50;;;;;15.98;41.45;101051.59;5032265;28;51227;-40
2021/06/01 04:24:41;;;;;;;;;9.75;9.25;;;;;15.99;41.21;101057.75;5030898;28;51511;-41
2021/06/01 04:27:07;;;;;;;;;10.25;9.50;;;;;16.03;41.24;101058.69;5029323;28;51119;-40
2021/06/01 04:29:32;;;;;;;;;9.25;9.25;;;;;16.04;41.17;101045.63;5029459;28;51025;-40
2021/06/01 04:31:58;;;;;;;;;9.00;9.00;;;;;16.07;41.97;101050.97;5029218;28;51131;-40
2021/06/01 04:34:23;;;;;;;;;8.75;8.75;;;;;16.10;42.13;101044.91;5031414;28;51202;-40
2021/06/01 04:36:48;;;;;;;;;11.00;11.00;;;;;16.12;41.10;101045.81;5031869;28;51513;-40
2021/06/01 04:39:14;;;;;;;;;10.75;9.75;;;;;16.14;41.33;101047.63;5031090;28;51202;-40
2021/06/01 04:41:39;;;;;;;;;12.25;12.00;;;;;16.17;41.45;101046.81;5032922;28;51147;-40
2021/06/01 04:44:05;;;;;;;;;9.00;9.00;;;;;16.21;41.13;101045.16;5036900;28;51153;-42
2021/06/01 04:46:31;;;;;;;;;8.50;7.50;;;;;16.23;41.52;101046.06;5032886;28;51066;-44
2021/06/01 04:48:56;;;;;;;;;8.00;8.00;;;;;16.25;41.71;101042.63;5034317;28;51095;-40
2021/06/01 04:51:23;;;;;;;;;7.00;7.00;;;;;16.26;41.80;101043.53;5035113;28;51131;-40
2021/06/01 04:53:50;;;;;;;;;6.75;6.75;;;;;16.28;41.26;101041.81;5035284;28;51087;-40
2021/06/01 04:56:15;;;;;;;;;7.00;7.00;;;;;16.32;41.49;101041.03;5034346;28;51227;-40
2021/06/01 04:58:41;;;;;;;;;8.25;7.75;;;;;16.34;41.50;101047.22;5028542;28;51394;-40
2021/06/01 05:01:06;;;;;;;;;7.00;7.00;;;;;16.40;41.39;101047.34;5031283;28;52830;-40
2021/06/01 05:03:32;;;;;;;;;8.00;8.00;;;;;16.68;40.72;101044.41;5030461;28;51381;-41
2021/06/01 05:05:57;;;;;;;;;6.75;6.75;;;;;17.28;39.93;101051.75;5025414;28;51249;-41
2021/06/01 05:08:23;;;;;;;;;8.00;8.00;;;;;17.94;38.80;101032.69;5028661;28;51309;-41
2021/06/01 05:10:48;;;;;;;;;9.00;8.00;;;;;18.54;37.73;101035.31;5034222;28;50965;-41
2021/06/01 05:13:13;;;;;;;;;7.00;6.00;;;;;19.11;36.87;101034.25;5033717;28;51295;-41
2021/06/01 05:15:39;;;;;;;;;6.00;6.00;;;;;19.64;35.82;101021.56;5011046;28;54035;-41
2021/06/01 05:18:04;;;;;;;;;7.00;7.00;;;;;20.19;34.67;101022.88;5034255;28;51279;-41
2021/06/01 05:20:30;;;;;;;;;6.67;6.67;;;;;20.67;34.66;101025.72;5034618;28;51017;-41
2021/06/01 05:22:55;;;;;;;;;8.33;7.67;;;;;21.15;33.82;101013.56;5033562;28;51254;-41
2021/06/01 05:25:20;;;;;;;;;9.67;9.00;;;;;21.55;32.05;101017.97;5033763;28;52063;-41
2021/06/01 05:27:46;;;;;;;;;10.00;10.00;;;;;21.96;31.65;101009.16;5032504;28;51087;-41
2021/06/01 05:30:14;;;;;;;;;10.00;9.00;;;;;22.38;31.94;101014.34;5034282;28;50953;-41
2021/06/01 05:33:09;;;;;;;;;10.00;10.00;;;;;22.90;31.53;101015.03;5031554;28;51099;-41
2021/06/01 05:35:28;;;;;;;;;9.00;8.33;;;;;23.50;30.39;101017.31;5033682;28;51298;-41
2021/06/01 05:37:53;;;;;;;;;7.00;7.00;;;;;23.84;29.12;101014.34;5034092;28;51023;-41
2021/06/01 05:40:19;;;;;;;;;8.67;8.00;;;;;24.17;28.34;101022.00;5033807;28;51016;-42
2021/06/01 05:42:44;;;;;;;;;9.00;8.33;;;;;24.55;28.20;101018.00;5031518;28;51120;-41
2021/06/01 05:45:10;;;;;;;;;7.33;7.00;;;;;24.78;28.23;101012.38;5033120;28;51674;-41
2021/06/01 05:47:35;;;;;;;;;7.00;7.00;;;;;24.97;27.17;101008.63;5031264;28;51293;-42
2021/06/01 05:50:02;;;;;;;;;8.00;7.00;;;;;25.24;26.42;101017.06;5033724;28;51224;-41
2021/06/01 05:52:30;;;;;;;;;7.33;7.00;;;;;25.52;26.89;101011.31;5030310;28;51134;-41
2021/06/01 05:54:56;;;;;;;;;7.00;7.00;;;;;25.95;27.21;101005.25;5033773;28;51691;-42
2021/06/01 05:57:21;;;;;;;;;9.00;8.00;;;;;26.50;25.75;101001.53;5029592;28;51545;-42
2021/06/01 05:59:47;;;;;;;;;7.00;7.00;;;;;26.89;25.43;100998.00;5032663;28;51404;-42
2021/06/01 06:02:12;;;;;;;;;8.67;8.00;;;;;27.35;25.70;100996.03;5030967;28;51308;-40
2021/06/01 06:04:37;;;;;;;;;6.33;6.00;;;;;28.05;24.27;101001.38;5032716;28;51837;-42
2021/06/01 06:07:03;;;;;;;;;8.00;7.00;;;;;28.55;23.11;101002.66;5031202;28;51021;-41
2021/06/01 06:09:29;;;;;;;;;9.33;9.00;;;;;28.87;23.76;100995.44;5032277;28;51251;-41
2021/06/01 06:11:54;;;;;;;;;6.33;6.00;;;;;29.41;23.09;101000.81;5031357;28;51391;-41
2021/06/01 06:14:19;;;;;;;;;6.67;6.67;;;;;29.83;22.54;100990.50;5028976;28;51818;-42
2021/06/01 06:16:50;;;;;;;;;7.67;7.00;;;;;30.11;20.98;100997.53;5030797;28;51260;-42
2021/06/01 06:19:16;;;;;;;;;7.67;7.00;;;;;30.29;20.66;100990.66;5065444;28;50934;-42
2021/06/01 06:21:42;;;;;;;;;6.33;6.33;;;;;30.57;21.01;100991.38;5028933;28;51251;-44
2021/06/01 06:24:07;;;;;;;;;7.00;6.33;;;;;30.73;21.29;100992.56;5024023;28;52129;-43
2021/06/01 06:26:33;;;;;;;;;7.00;6.33;;;;;30.95;19.35;100996.19;5018810;28;51324;-44
2021/06/01 06:28:58;;;;;;;;;6.33;6.33;;;;;31.24;20.55;101003.03;5031461;28;51142;-43
2021/06/01 06:31:23;;;;;;;;;7.00;6.00;;;;;31.61;18.52;100994.34;5029568;28;51133;-43
2021/06/01 06:33:49;;;;;;;;;8.00;7.33;;;;;31.90;19.39;100989.56;5026987;28;52903;-43
2021/06/01 06:36:14;;;;;;;;;7.67;7.67;;;;;32.23;19.15;100991.66;5027318;28;51334;-44
2021/06/01 06:38:41;;;;;;;;;5.00;4.00;;;;;32.85;18.94;100986.03;5028699;28;51167;-42
2021/06/01 06:41:15;;;;;;;;;6.67;6.67;;;;;33.30;18.44;100982.09;5029149;28;51238;-44
2021/06/01 06:43:49;;;;;;;;;7.00;6.00;;;;;33.60;18.56;100978.81;5031704;28;51076;-44
2021/06/01 06:46:37;;;;;;;;;7.33;6.00;;;;;33.89;18.23;100979.91;5029010;28;51011;-42
2021/06/01 06:49:04;;;;;;;;;6.00;6.00;;;;;34.21;17.51;100984.56;5032717;28;51079;-43
2021/06/01 06:51:30;;;;;;;;;6.00;6.00;;;;;34.09;16.77;100986.09;5032627;28;51257;-42
2021/06/01 06:53:57;;;;;;;;;6.00;6.00;;;;;33.82;17.01;100985.72;5032863;28;52238;-43
2021/06/01 06:56:27;;;;;;;;;6.67;6.00;;;;;34.11;16.93;100983.31;5030177;28;51450;-42
2021/06/01 06:58:54;;;;;;;;;6.33;6.00;;;;;34.83;17.51;100988.31;5026876;28;51293;-41
2021/06/01 07:01:20;;;;;;;;;6.33;6.00;;;;;35.88;15.88;100980.38;5031488;28;51139;-42
2021/06/01 07:03:46;;;;;;;;;7.67;7.00;;;;;36.25;16.62;100983.47;5031666;28;52824;-43
2021/06/01 07:06:12;;;;;;;;;6.33;6.00;;;;;36.60;15.64;100979.44;5014686;28;51255;-42
2021/06/01 07:08:37;;;;;;;;;6.33;6.00;;;;;36.93;14.03;100979.16;5036868;28;51164;-45
2021/06/01 07:11:03;;;;;;;;;5.00;5.00;;;;;37.29;15.68;100973.09;5031263;28;51143;-42
2021/06/01 07:13:49;;;;;;;;;6.00;6.00;;;;;37.92;13.64;100983.22;5030440;28;52865;-43
2021/06/01 07:16:16;;;;;;;;;9.33;9.00;;;;;38.03;14.64;100982.44;5032521;28;51126;-44
2021/06/01 07:18:42;;;;;;;;;9.67;9.00;;;;;38.25;14.23;100977.34;5030668;28;51179;-43
2021/06/01 07:21:09;;;;;;;;;6.00;6.00;;;;;38.96;13.76;100976.66;5032521;28;51026;-43
2021/06/01 07:23:35;;;;;;;;;7.33;7.00;;;;;39.55;13.69;100971.31;5031850;28;51684;-42
2021/06/01 07:26:01;;;;;;;;;7.33;7.00;;;;;39.56;13.76;100965.78;5031963;28;51005;-46
2021/06/01 07:28:26;;;;;;;;;6.33;6.33;;;;;39.83;13.12;100960.97;5031689;28;51033;-42
2021/06/01 07:30:52;;;;;;;;;8.00;8.00;;;;;40.30;13.66;100960.84;5032545;28;50897;-44
2021/06/01 07:33:17;;;;;;;;;9.33;7.33;;;;;40.97;13.46;100959.91;5031876;28;50974;-43
2021/06/01 07:35:44;;;;;;;;;6.67;6.67;;;;;41.64;12.61;100963.22;5030227;28;51064;-44
2021/06/01 07:38:11;;;;;;;;;6.33;6.00;;;;;41.83;11.16;100964.34;5030955;28;51187;-44
2021/06/01 07:40:39;;;;;;;;;7.75;7.75;;;;;41.62;12.25;100953.44;5032226;28;51107;-43
2021/06/01 07:43:04;;;;;;;;;8.67;8.33;;;;;42.05;12.30;100956.97;5031375;28;51131;-42
2021/06/01 07:45:30;;;;;;;;;7.33;7.33;;;;;42.90;11.97;100953.81;5032023;28;51091;-42
2021/06/01 07:47:55;;;;;;;;;22.50;21.00;;;;;43.70;11.32;100952.66;5030351;28;50876;-44
2021/06/01 07:50:21;;;;;;;;;19.75;17.50;;;;;44.48;11.31;100956.00;5032414;28;51181;-43
2021/06/01 07:52:46;;;;;;;;;7.33;7.33;;;;;44.97;10.67;100952.00;5032146;28;51906;-45
2021/06/01 07:55:12;;;;;;;;;8.33;8.33;;;;;45.55;10.30;100952.44;5031816;28;51049;-44
2021/06/01 07:57:38;;;;;;;;;8.75;8.75;;;;;46.07;10.35;100952.50;5031375;28;50984;-43
2021/06/01 08:00:06;;;;;;;;;9.33;9.33;;;;;46.46;9.62;100954.69;5031498;28;50865;-42
2021/06/01 08:02:31;;;;;;;;;8.00;7.33;;;;;46.86;9.78;100954.88;5031831;28;52453;-43
2021/06/01 08:04:56;;;;;;;;;6.33;5.67;;;;;47.40;9.18;100949.84;5031543;28;51091;-43
2021/06/01 08:07:22;;;;;;;;;6.00;6.00;;;;;47.58;9.07;100942.25;5028798;28;51119;-44
2021/06/01 08:09:48;;;;;;;;;7.00;6.25;;;;;47.74;8.92;100934.13;5031770;28;51370;-43
2021/06/01 08:12:14;;;;;;;;;8.25;8.25;;;;;48.38;8.41;100935.88;5031287;28;52760;-43
2021/06/01 08:14:39;;;;;;;;;8.00;7.67;;;;;47.94;7.78;100931.81;5031363;28;51142;-43
2021/06/01 08:17:05;;;;;;;;;9.25;8.25;;;;;47.32;8.33;100924.09;5034749;28;50953;-43
2021/06/01 08:19:37;;;;;;;;;7.00;7.00;;;;;47.23;8.70;100919.66;5035598;28;51115;-44
2021/06/01 08:22:10;;;;;;;;;6.33;6.33;;;;;47.62;8.05;100919.91;5034289;28;52929;-42
2021/06/01 08:24:37;;;;;;;;;7.75;7.75;;;;;47.24;7.92;100923.25;5028618;28;51044;-44
2021/06/01 08:27:03;;;;;;;;;9.00;8.75;;;;;47.11;8.55;100913.66;5029789;28;51104;-44
2021/06/01 08:29:29;;;;;;;;;8.00;8.00;;;;;47.27;8.34;100911.94;5029220;28;50972;-46
2021/06/01 08:31:54;;;;;;;;;8.50;7.50;;;;;47.78;8.09;100910.72;5022555;28;51674;-46
2021/06/01 08:34:19;;;;;;;;;8.00;8.00;;;;;47.85;7.69;100897.97;5031180;28;51127;-42
2021/06/01 08:36:45;;;;;;;;;7.50;7.50;;;;;47.92;7.82;100907.25;5028159;28;51159;-42
2021/06/01 08:39:11;;;;;;;;;8.25;8.00;;;;;48.56;8.43;100904.38;5027204;28;51205;-43
2021/06/01 08:41:38;;;;;;;;;7.33;7.33;;;;;48.96;7.88;100902.34;5028649;28;51829;-44
2021/06/01 08:44:05;;;;;;;;;8.00;8.00;;;;;48.71;7.04;100908.06;5028584;28;51214;-43
2021/06/01 08:46:31;;;;;;;;;7.75;7.75;;;;;48.77;7.46;100905.63;5024614;28;52695;-42
2021/06/01 08:48:57;;;;;;;;;8.25;8.25;;;;;49.88;8.04;100906.78;5029826;28;53835;-44
2021/06/01 08:51:25;;;;;;;;;8.50;8.50;;;;;50.46;7.01;100903.16;5023700;28;53198;-43
2021/06/01 08:53:53;;;;;;;;;8.75;8.00;;;;;51.23;6.64;100896.97;5029593;28;53377;-44
2021/06/01 08:56:19;;;;;;;;;8.50;8.25;;;;;51.62;6.99;100893.75;5024736;28;51531;-43
2021/06/01 08:58:47;;;;;;;;;9.00;8.75;;;;;52.11;6.12;100903.66;5030016;28;51267;-43
2021/06/01 09:01:13;;;;;;;;;8.25;8.25;;;;;52.19;6.40;100905.44;5022113;28;51496;-44
2021/06/01 09:03:53;;;;;;;;;7.00;7.00;;;;;52.37;6.20;100899.25;5027282;28;51735;-43
2021/06/01 09:06:36;;;;;;;;;7.50;7.50;;;;;52.57;6.06;100898.44;5029182;28;51579;-43
2021/06/01 09:22:39;;;;;;;;;10.75;10.25;;;;;53.55;5.53;100892.28;5021086;28;51670;-43
2021/06/01 09:25:12;;;;;;;;;8.00;8.00;;;;;54.64;5.27;100884.94;5033853;28;51017;-42
2021/06/01 09:27:49;;;;;;;;;8.75;8.00;;;;;54.40;4.97;100872.75;5032254;28;50966;-43
2021/06/01 09:30:58;;;;;;;;;7.25;6.75;;;;;54.61;5.04;100874.28;5028298;28;51288;-42
2021/06/01 09:33:31;;;;;;;;;7.75;7.75;;;;;54.32;4.57;100871.09;4995608;28;51246;-44
2021/06/01 09:35:58;;;;;;;;;9.00;8.00;;;;;54.27;4.28;100865.38;5031899;28;51287;-43
2021/06/01 09:38:24;;;;;;;;;10.25;9.00;;;;;54.08;4.80;100875.53;5033833;28;51181;-42
2021/06/01 09:41:11;;;;;;;;;6.50;6.50;;;;;53.83;5.84;100863.28;5034228;28;51081;-45
2021/06/01 09:43:59;;;;;;;;;7.00;7.00;;;;;54.28;4.14;100859.59;5032528;28;52695;-43
2021/06/01 09:46:26;;;;;;;;;7.00;7.00;;;;;54.01;4.59;100858.94;5025685;28;51058;-42
2021/06/01 09:48:54;;;;;;;;;7.00;7.00;;;;;53.83;4.76;100845.81;5033809;28;51174;-43
2021/06/01 09:51:32;;;;;;;;;7.50;7.50;;;;;54.73;3.96;100860.47;5033800;28;50989;-43
2021/06/01 09:54:30;;;;;;;;;6.00;6.00;;;;;53.94;3.94;100858.97;5033781;28;50980;-42
2021/06/01 09:56:57;;;;;;;;;6.00;5.75;;;;;52.46;4.17;100849.22;5033252;28;51103;-42
2021/06/01 09:59:22;;;;;;;;;7.00;7.00;;;;;51.28;4.84;100849.34;5033725;28;51174;-43
2021/06/01 10:01:48;;;;;;;;;4.25;4.25;;;;;50.91;5.55;100855.91;5031817;28;51149;-43
2021/06/01 10:04:29;;;;;;;;;8.25;7.50;;;;;51.56;5.38;100857.56;5032802;28;51939;-43
2021/06/01 10:06:55;;;;;;;;;8.50;8.50;;;;;51.98;5.22;100854.69;5033696;28;51118;-45
2021/06/01 10:09:20;;;;;;;;;9.00;9.00;;;;;52.61;5.20;100854.56;5033713;28;51024;-43
2021/06/01 10:11:58;;;;;;;;;5.75;5.75;;;;;52.68;5.32;100851.75;5033141;28;50897;-43
2021/06/01 10:14:24;;;;;;;;;10.00;8.00;;;;;52.64;4.29;100854.97;5028452;28;51982;-42
2021/06/01 10:16:51;;;;;;;;;7.25;7.25;;;;;52.70;4.85;100855.16;5033141;28;51024;-43
2021/06/01 10:19:17;;;;;;;;;6.00;6.00;;;;;52.28;4.79;100844.28;5032916;28;50976;-45
2021/06/01 10:21:44;;;;;;;;;8.00;8.00;;;;;51.97;5.42;100835.53;5030242;28;51101;-44
2021/06/01 10:24:14;;;;;;;;;4.75;4.75;;;;;52.19;4.54;100844.53;5033146;28;51405;-44
2021/06/01 10:26:46;;;;;;;;;7.50;7.50;;;;;51.85;5.09;100825.09;5032866;28;50934;-44
2021/06/01 10:29:14;;;;;;;;;9.25;9.00;;;;;52.82;4.92;100825.72;5034184;28;51065;-43
2021/06/01 10:31:43;;;;;;;;;8.25;8.25;;;;;54.13;4.63;100826.59;5033235;28;51308;-44
2021/06/01 10:34:16;;;;;;;;;6.25;6.00;;;;;54.35;3.13;100826.19;5032241;28;52015;-48
2021/06/01 10:50:41;;;;;;;;;9.00;9.00;;;;;51.45;5.47;100802.81;5029520;28;51389;-45
2021/06/01 10:53:25;;;;;;;;;6.25;6.25;;;;;50.91;5.43;100806.19;5032101;28;51219;-43
2021/06/01 10:58:21;;;;;;;;;7.67;7.67;;;;;47.48;6.44;100797.78;5031742;28;51069;-43
2021/06/01 11:03:15;;;;;;;;;6.67;6.67;;;;;43.93;8.41;100793.69;5031097;28;51119;-43
2021/06/01 11:05:59;;;;;;;;;6.00;6.00;;;;;44.15;8.29;100808.78;5031096;28;51833;-45
2021/06/01 11:08:44;;;;;;;;;6.00;6.00;;;;;43.51;8.62;100800.56;5030459;28;51214;-45
2021/06/01 11:11:26;;;;;;;;;5.00;5.00;;;;;42.14;9.89;100794.34;5018769;28;51049;-44
2021/06/01 11:14:00;;;;;;;;;6.67;6.00;;;;;40.57;10.32;100793.56;5031410;28;50902;-43
2021/06/01 11:16:26;;;;;;;;;7.33;6.33;;;;;39.08;11.28;100791.16;5031375;28;52227;-45
2021/06/01 11:19:01;;;;;;;;;6.67;6.67;;;;;37.54;12.38;100781.84;5029890;28;50973;-45
2021/06/01 11:21:35;;;;;;;;;6.67;6.67;;;;;36.83;13.01;100776.00;5030342;28;51133;-43
2021/06/01 11:24:10;;;;;;;;;6.33;6.33;;;;;35.86;14.02;100790.50;5031501;28;51421;-43
2021/06/01 11:35:47;;;;;;;;;6.33;6.33;;;;;32.83;16.59;100770.16;5026456;28;51083;-43
2021/06/01 11:38:26;;;;;;;;;6.00;6.00;;;;;32.51;16.82;100770.03;5025080;28;52436;-44
2021/06/01 11:43:32;;;;;;;;;8.00;7.00;;;;;31.91;17.00;100760.41;5030708;28;50976;-44
2021/06/01 11:46:13;;;;;;;;;4.33;4.33;;;;;31.63;17.13;100761.69;5028587;28;51438;-41
2021/06/01 11:51:54;;;;;;;;;7.67;7.67;;;;;31.11;17.48;100744.38;5012579;28;51166;-44
2021/06/01 11:54:20;;;;;;;;;6.33;6.33;;;;;31.17;17.41;100752.13;5031097;28;51695;-43
2021/06/01 12:18:49;;;;;;;;;4.00;4.00;;;;;29.26;18.03;100739.31;5030546;28;50969;-44
2021/06/01 12:21:19;;;;;;;;;6.00;6.00;;;;;29.03;18.91;100733.91;5026061;28;53208;-46
2021/06/01 12:24:05;;;;;;;;;3.00;3.00;;;;;28.88;19.01;100754.00;5025932;28;51400;-44
2021/06/01 12:32:13;;;;;;;;;5.00;5.00;;;;;28.85;20.06;100735.38;5026791;28;50906;-43
2021/06/01 13:20:39;;;;;;;;;9.33;9.33;;;;;28.29;22.78;100711.47;5033730;28;51019;-43
2021/06/01 13:47:11;;;;;;;;;7.00;7.00;;;;;28.37;24.64;100687.19;5033014;28;51179;-42
2021/06/01 13:49:41;;;;;;;;;5.67;5.67;;;;;28.31;24.83;100687.41;5033433;28;52013;-43
2021/06/01 13:57:34;;;;;;;;;6.33;6.00;;;;;28.27;24.78;100685.75;5033151;28;51153;-44
2021/06/01 14:30:15;;;;;;;;;7.00;7.00;;;;;28.31;25.68;100666.03;5028593;28;51187;-43
2021/06/01 14:36:09;;;;;;;;;6.00;6.00;;;;;28.34;25.23;100663.25;5010016;28;51518;-43
2021/06/01 14:39:29;;;;;;;;;7.00;7.00;;;;;28.29;25.88;100654.53;5009884;28;51237;-43
2021/06/01 15:49:35;;;;;;;;;8.00;8.00;;;;;28.27;26.45;100608.34;5031024;28;51573;-43